Yorklyn, Delaware
Current Conditions -  °F | °C
As of 12:51 AM on Saturday 25 Oct 2014 (Local Time) from KILG Reporting Station
Clear Clear  
Wind Chill: 52°   Ceiling: Unl
Heat Index: 52°   Visibility: 10mi
Dew Point: 39°   Wind: 8mph
Humidity: 61%   Direction: 300°WNW
Pressure: 29.91"   Gusts: NA
Location:  39.81°N, 75.67°W
Report Text: KILG 250451Z 30007KT 10SM CLR 11/04 A2991 RMK AO2 SLP128 T01110039 402110111
Loading
Personal Weather Stations






























Interactive Weather Map
Tropical Storm Tracking
New forecast layout! Learn more

10-Day Weather Forecast

Advertisements
Track Severe Weather on mobile